Index, Washington
Current Conditions -  °F | °C
As of 4:53 PM on Monday 22 Dec 2014 (Local Time) from KPAE Reporting Station
Few Clouds Few Clouds  
Wind Chill: 46°   Ceiling: Unl
Heat Index: 46°   Visibility: 10mi
Dew Point: 40°   Wind: 3mph
Humidity: 79%   Direction: 50°NE
Pressure: 30.37"   Gusts: NA
Location:  47.82°N, 121.56°W
Report Text: KPAE 230053Z 05003KT 10SM FEW120 08/04 A3037 RMK AO2 SLP287 T00780044
Loading
Personal Weather Stations






























Interactive Weather Map New forecast layout! Learn more

10-Day Weather Forecast

Advertisements
Track Severe Weather on mobile